Pagrindinis puslapis
METAR-TAF:

METAR-TAF

Oro uostai :

Kočabamba, Bolivija

platuma: 17-25S, ilguma: 066-11W, Aukštis: 2548 m

Dabartinis oras

Ataskaita buvo paskelbta 56 minutes, ne 16:00 UTC
Vėjas 3 kt iš Šiaurės
Temperatūra 23°C
Drėgmė 12%
Slėgis 1027 hPa
Matomumas 10 km arba daugiau

METAR: SLCB 271600Z 36003KT 9999 NSC 23/M08 Q1027

Laikas: 12:56 (16:56 UTC)

Prognozė

Ataskaita buvo paskelbta 6 valandos ir 56 minutes, ne 10:00 UTC
Prognozė galioja nuo 27 metu 12 UTC su 28 metu 12 UTC
Vėjas kt iš Šiaurės
Matomumas 10 km arba daugiau
Laikinai
nuo 27 metu 16 UTC su 27 metu 19 UTC
Vėjas 10 kt iš Vakarų

TAF: SLCB 271000Z 2712/2812 00000KT 9999 NSC TX28/2719Z TN06/2810Z TEMPO 2716/2719 26010KT

Orai ataskaitas ir orų prognozės (METAR, TAF).

turimą stotys yra geltonos ir raudonos taškus žemėlapyje.

Perkelti pele per norėdami pamatyti stoties vardą.

Tada spustelėkite, norėdami matyti oro stebėjimo ir prognozės.

Norėdami pakeisti žemėlapį: spustelėkite ant žalios mygtukų su juodo kryžiaus žemyn,; žalią mygtuką su brūkšneliu, jei norite nutolinti; arba žalių rodyklių gretimoms žemėlapius.


METAR-TAF: